Time;durP1;ratioP1;P1;durP2;ratioP2;P2;SDS_P1;SDS_P2;PMS_P1;PMS_P2;Temp;Humidity;BMP_temperature;BMP_pressure;BME280_temperature;BME280_humidity;BME280_pressure;Samples;Min_cycle;Max_cycle;Signal;HPM_P1;HPM_P2
2020/12/20 00:00:21;;;;;;;244.28;132.30;;;;;;;2.45;77.11;95459.48;1799899;79;23023;-50
2020/12/20 00:02:52;;;;;;;234.15;132.57;;;;;;;2.53;76.83;95457.59;1799859;79;21545;-50
2020/12/20 00:05:21;;;;;;;227.00;125.18;;;;;;;2.56;76.58;95453.55;1799916;79;21588;-50
2020/12/20 00:07:51;;;;;;;229.32;128.78;;;;;;;2.58;76.71;95455.88;1799838;79;21112;-50
2020/12/20 00:10:20;;;;;;;229.60;128.80;;;;;;;2.67;76.58;95454.97;1799859;79;21585;-51
2020/12/20 00:12:48;;;;;;;246.57;136.60;;;;;;;2.72;76.43;95456.72;1799883;79;21123;-50
2020/12/20 00:15:19;;;;;;;217.90;117.22;;;;;;;2.79;76.21;95457.34;1799849;78;21183;-50
2020/12/20 00:17:48;;;;;;;229.60;124.40;;;;;;;2.83;75.97;95459.53;1799933;79;21164;-49
2020/12/20 00:20:17;;;;;;;228.45;130.30;;;;;;;2.80;75.68;95456.19;1799790;79;21076;-50
2020/12/20 00:22:46;;;;;;;226.07;122.92;;;;;;;2.72;75.82;95458.08;1799677;78;22364;-49
2020/12/20 00:25:14;;;;;;;237.17;125.50;;;;;;;2.72;75.95;95468.19;1799863;79;21509;-50
2020/12/20 00:27:43;;;;;;;264.48;130.97;;;;;;;2.70;75.82;95469.15;1799817;79;21065;-50
2020/12/20 00:30:11;;;;;;;259.15;124.87;;;;;;;2.66;75.95;95466.99;1799928;79;21139;-50
2020/12/20 00:32:40;;;;;;;249.92;129.07;;;;;;;2.69;76.09;95475.73;1799843;79;21100;-49
2020/12/20 00:35:08;;;;;;;246.55;128.78;;;;;;;2.75;76.03;95468.78;1799771;78;22213;-51
2020/12/20 00:37:37;;;;;;;263.02;131.27;;;;;;;2.82;75.82;95475.59;1799783;79;21084;-49
2020/12/20 00:40:05;;;;;;;247.15;126.20;;;;;;;2.79;75.79;95473.08;1799904;79;21061;-50
2020/12/20 00:42:34;;;;;;;223.85;115.35;;;;;;;2.82;75.63;95468.81;1799899;79;21072;-50
2020/12/20 00:45:03;;;;;;;219.90;114.62;;;;;;;2.83;75.48;95460.89;1799943;78;21458;-49
2020/12/20 00:47:31;;;;;;;210.00;113.95;;;;;;;2.85;75.33;95463.41;1799840;78;21189;-49
2020/12/20 00:50:00;;;;;;;191.53;110.08;;;;;;;2.84;75.30;95465.16;1799754;78;21124;-50
2020/12/20 00:52:29;;;;;;;199.75;106.65;;;;;;;2.81;75.44;95461.81;1799818;79;21097;-48
2020/12/20 00:54:58;;;;;;;232.70;122.85;;;;;;;2.78;75.41;95463.94;1799824;78;21132;-51
2020/12/20 00:57:27;;;;;;;210.23;114.85;;;;;;;2.72;75.53;95465.47;1799871;79;21041;-50
2020/12/20 00:59:55;;;;;;;200.35;110.15;;;;;;;2.71;75.60;95470.11;1799816;78;21386;-51
2020/12/20 01:02:23;;;;;;;171.02;96.53;;;;;;;2.73;75.67;95462.95;1799705;78;21128;-50
2020/12/20 01:04:52;;;;;;;158.32;89.25;;;;;;;2.73;75.39;95461.59;1799834;79;21041;-50
2020/12/20 01:07:21;;;;;;;83.55;49.38;;;;;;;2.68;75.34;95460.00;1799903;79;21120;-51
2020/12/20 01:09:51;;;;;;;19.70;13.88;;;;;;;2.69;75.05;95462.16;1800025;79;21120;-50
2020/12/20 01:12:20;;;;;;;11.95;10.08;;;;;;;2.72;74.42;95459.44;1799949;78;21185;-49
2020/12/20 01:15:01;;;;;;;10.58;8.38;;;;;;;2.81;73.79;95457.74;1873635;76;22419;-49
2020/12/20 01:17:30;;;;;;;19.67;13.22;;;;;;;2.81;73.29;95452.31;1841582;78;21042;-49
2020/12/20 01:20:00;;;;;;;10.32;8.05;;;;;;;2.86;72.91;95453.33;1841677;78;22131;-49
2020/12/20 01:22:31;;;;;;;9.55;8.00;;;;;;;2.89;72.42;95454.68;1841590;77;21069;-51
2020/12/20 01:24:59;;;;;;;9.98;7.90;;;;;;;2.90;72.20;95457.59;1841615;77;21069;-49
2020/12/20 01:27:28;;;;;;;9.20;7.83;;;;;;;2.95;71.96;95451.03;1841555;78;21053;-49
2020/12/20 01:29:56;;;;;;;7.12;6.42;;;;;;;3.00;71.77;95450.66;1841571;77;21125;-50
2020/12/20 01:32:25;;;;;;;9.90;7.75;;;;;;;3.03;71.15;95453.99;1841564;77;21198;-49
2020/12/20 01:34:55;;;;;;;12.15;8.68;;;;;;;3.03;70.69;95449.92;1840561;78;21113;-50
2020/12/20 01:37:25;;;;;;;18.15;11.88;;;;;;;2.97;70.50;95451.42;1841526;78;21134;-50
2020/12/20 01:39:54;;;;;;;15.60;10.53;;;;;;;2.90;70.81;95440.53;1841531;77;21133;-50
2020/12/20 01:42:22;;;;;;;9.30;7.42;;;;;;;2.92;70.89;95445.00;1811101;78;21057;-50
2020/12/20 01:44:53;;;;;;;8.73;7.90;;;;;;;2.93;70.43;95447.92;1808524;79;21414;-50
2020/12/20 01:47:23;;;;;;;12.68;9.15;;;;;;;2.94;70.34;95446.75;1779172;79;21196;-50
2020/12/20 01:49:53;;;;;;;10.13;7.80;;;;;;;2.94;70.29;95452.19;1806689;78;21152;-50
2020/12/20 01:52:23;;;;;;;5.60;5.20;;;;;;;2.88;70.13;95453.13;1779960;79;21494;-49
2020/12/20 01:54:51;;;;;;;27.20;14.83;;;;;;;2.78;69.60;95458.51;1808572;79;21070;-50
2020/12/20 01:57:21;;;;;;;23.02;11.33;;;;;;;2.77;69.72;95459.66;1807771;79;22100;-49
2020/12/20 02:00:00;;;;;;;5.95;5.45;;;;;;;2.85;69.50;95453.13;1888655;76;22109;-50
2020/12/20 02:02:30;;;;;;;7.37;6.12;;;;;;;2.81;68.97;95453.66;1772843;80;21505;-50
2020/12/20 02:05:01;;;;;;;13.78;12.68;;;;;;;2.79;68.94;95451.91;1849885;77;21905;-50
2020/12/20 02:07:30;;;;;;;6.72;6.22;;;;;;;2.77;68.91;95457.74;1849795;77;21473;-50
2020/12/20 02:09:59;;;;;;;5.95;5.53;;;;;;;2.72;68.49;95460.80;1849907;77;21064;-50
2020/12/20 02:12:27;;;;;;;6.40;5.80;;;;;;;2.69;68.60;95458.08;1849852;77;21048;-51
2020/12/20 02:14:57;;;;;;;6.42;5.83;;;;;;;2.67;68.56;95454.97;1847586;77;21072;-51
2020/12/20 02:17:26;;;;;;;5.83;5.37;;;;;;;2.65;68.38;95455.93;1849951;77;22208;-50
2020/12/20 02:19:55;;;;;;;6.35;5.85;;;;;;;2.57;68.51;95459.18;1849759;77;21115;-50
2020/12/20 02:22:43;;;;;;;6.83;6.22;;;;;;;2.53;68.45;95458.95;1849856;77;21135;-50
2020/12/20 02:25:11;;;;;;;11.05;8.30;;;;;;;2.48;68.70;95460.08;1849852;77;21032;-49
2020/12/20 02:27:42;;;;;;;8.30;7.33;;;;;;;2.48;68.98;95460.67;1847974;77;21071;-49
2020/12/20 02:30:10;;;;;;;8.15;6.05;;;;;;;2.49;69.00;95469.02;1849837;77;21238;-50
2020/12/20 02:32:39;;;;;;;7.67;6.22;;;;;;;2.49;68.79;95462.23;1849762;77;21084;-50
2020/12/20 02:35:08;;;;;;;7.37;6.37;;;;;;;2.49;68.56;95463.58;1849869;77;21059;-50
2020/12/20 02:37:36;;;;;;;7.65;6.95;;;;;;;2.50;68.59;95463.78;1849847;77;21111;-50
2020/12/20 02:40:05;;;;;;;7.33;6.70;;;;;;;2.49;68.74;95467.66;1849810;77;21115;-49
2020/12/20 02:42:35;;;;;;;6.22;5.72;;;;;;;2.47;68.82;95472.69;1815687;79;21356;-52
2020/12/20 02:45:03;;;;;;;8.70;6.12;;;;;;;2.47;68.32;95472.69;1816446;78;21138;-51
2020/12/20 02:47:32;;;;;;;7.10;6.50;;;;;;;2.40;68.39;95472.06;1816527;78;21170;-50
2020/12/20 02:50:01;;;;;;;8.98;6.70;;;;;;;2.39;68.67;95476.50;1816531;79;21072;-50
2020/12/20 02:52:40;;;;;;;8.18;7.37;;;;;;;2.49;68.92;95472.49;1873609;75;22645;-50
2020/12/20 02:55:09;;;;;;;7.78;6.90;;;;;;;2.52;68.92;95477.16;1841600;78;21041;-56
2020/12/20 02:57:39;;;;;;;13.98;10.23;;;;;;;2.59;68.76;95479.16;1841487;78;21438;-51
2020/12/20 03:00:09;;;;;;;14.58;10.32;;;;;;;2.61;68.26;95469.48;1805059;78;21062;-51
2020/12/20 03:02:38;;;;;;;9.78;8.55;;;;;;;2.53;68.44;95472.53;1841580;77;21042;-59
2020/12/20 03:05:07;;;;;;;16.73;11.68;;;;;;;2.50;68.57;95474.64;1841531;77;21502;-49
2020/12/20 03:07:36;;;;;;;6.55;5.92;;;;;;;2.50;68.46;95482.79;1841628;78;20958;-50
2020/12/20 03:10:05;;;;;;;7.83;7.00;;;;;;;2.46;68.29;95478.69;1841579;77;21173;-50
2020/12/20 03:12:33;;;;;;;9.88;7.45;;;;;;;2.50;68.53;95478.72;1841475;78;21141;-51
2020/12/20 03:15:03;;;;;;;8.15;7.28;;;;;;;2.59;68.22;95482.66;1841545;77;21077;-50
2020/12/20 03:17:33;;;;;;;7.58;6.72;;;;;;;2.59;68.11;95481.30;1841514;77;21133;-51
2020/12/20 03:20:02;;;;;;;7.37;6.67;;;;;;;2.58;68.04;95479.75;1841555;78;21162;-51
2020/12/20 03:22:31;;;;;;;31.15;8.78;;;;;;;2.58;68.08;95470.80;1841673;78;21333;-49
2020/12/20 03:25:01;;;;;;;10.82;7.28;;;;;;;2.54;68.18;95476.20;1838700;78;21093;-49
2020/12/20 03:27:31;;;;;;;10.03;7.20;;;;;;;2.48;68.20;95475.01;1809976;78;21106;-50
2020/12/20 03:30:10;;;;;;;10.53;8.45;;;;;;;2.43;68.42;95473.22;1837877;77;21084;-50
2020/12/20 03:32:41;;;;;;;22.62;15.15;;;;;;;2.44;68.43;95484.28;1809750;78;21062;-49
2020/12/20 03:35:17;;;;;;;21.93;14.53;;;;;;;2.41;68.54;95483.12;1840707;78;22019;-52
2020/12/20 03:37:51;;;;;;;9.20;8.30;;;;;;;2.42;68.77;95482.52;1841326;77;21093;-52
2020/12/20 03:40:22;;;;;;;9.15;8.08;;;;;;;2.46;68.40;95488.75;1839160;78;21069;-50
2020/12/20 03:42:50;;;;;;;9.18;8.20;;;;;;;2.48;68.31;95483.75;1808487;78;21128;-51
2020/12/20 03:45:19;;;;;;;17.00;13.10;;;;;;;2.54;68.31;95479.52;1808519;78;21041;-50
2020/12/20 03:47:47;;;;;;;62.62;26.50;;;;;;;2.58;68.51;95478.39;1808560;79;22262;-50
2020/12/20 03:50:17;;;;;;;30.12;18.02;;;;;;;2.67;68.46;95478.06;1808532;79;21486;-49
2020/12/20 03:52:46;;;;;;;27.50;21.80;;;;;;;2.76;68.37;95477.12;1813557;79;21156;-50
2020/12/20 03:55:19;;;;;;;23.77;16.65;;;;;;;2.80;68.29;95471.13;1813779;79;21205;-50
2020/12/20 03:57:48;;;;;;;26.15;18.23;;;;;;;2.87;68.08;95477.98;1814200;79;21061;-49
2020/12/20 04:00:18;;;;;;;24.18;16.80;;;;;;;2.86;68.05;95475.83;1814199;79;21222;-50
2020/12/20 04:02:51;;;;;;;;;;;;;;;2.88;68.11;95477.58;1815293;78;21105;-49
2020/12/20 04:05:22;;;;;;;26.73;16.52;;;;;;;2.87;68.14;95480.70;1813646;78;20216;-49
2020/12/20 04:07:50;;;;;;;60.88;31.02;;;;;;;2.82;68.24;95478.31;1813577;79;21121;-50
2020/12/20 04:10:20;;;;;;;46.30;24.70;;;;;;;2.77;68.16;95471.89;1813621;79;21489;-50
2020/12/20 04:12:48;;;;;;;53.10;27.25;;;;;;;2.71;68.43;95476.13;1813566;79;21469;-51
2020/12/20 04:15:17;;;;;;;58.13;29.23;;;;;;;2.67;68.46;95468.55;1813536;78;21077;-50
2020/12/20 04:17:46;;;;;;;52.23;25.92;;;;;;;2.67;68.57;95474.75;1813594;79;21116;-50
2020/12/20 04:20:14;;;;;;;17.70;13.62;;;;;;;2.69;68.64;95472.42;1813566;79;21136;-49
2020/12/20 04:22:47;;;;;;;16.75;13.95;;;;;;;2.74;68.60;95473.45;1813158;78;21067;-50
2020/12/20 04:25:34;;;;;;;17.73;12.85;;;;;;;2.84;68.30;95477.38;1845290;75;21969;-50
2020/12/20 04:28:13;;;;;;;14.18;11.03;;;;;;;2.86;68.12;95479.14;1783847;80;21092;-49
2020/12/20 04:30:42;;;;;;;16.65;12.93;;;;;;;2.88;67.97;95480.89;1815364;77;21141;-50
2020/12/20 04:33:12;;;;;;;16.07;10.75;;;;;;;2.82;67.91;95486.47;1814403;79;21066;-52
2020/12/20 04:35:41;;;;;;;8.70;7.60;;;;;;;2.76;67.78;95482.56;1815393;79;21077;-49
2020/12/20 04:38:10;;;;;;;8.83;7.72;;;;;;;2.67;67.64;95486.20;1784136;79;21126;-50
2020/12/20 04:40:40;;;;;;;11.78;9.43;;;;;;;2.59;67.47;95489.45;1808963;78;21071;-50
2020/12/20 04:43:11;;;;;;;11.95;10.10;;;;;;;2.47;67.65;95493.05;1753428;80;22328;-50
2020/12/20 04:45:43;;;;;;;10.00;8.45;;;;;;;2.47;67.78;95495.77;1783337;80;21514;-50
2020/12/20 04:48:13;;;;;;;10.63;8.95;;;;;;;2.47;67.71;95493.81;1783301;79;21078;-49
2020/12/20 04:50:53;;;;;;;11.68;9.55;;;;;;;2.45;67.65;95491.27;1783163;79;21086;-49
2020/12/20 04:53:22;;;;;;;10.82;9.13;;;;;;;2.44;67.85;95495.14;1783352;80;21495;-49
2020/12/20 04:55:54;;;;;;;13.93;11.50;;;;;;;2.48;67.80;95491.90;1783179;79;22093;-50
2020/12/20 04:58:27;;;;;;;12.10;9.93;;;;;;;2.53;67.86;95501.04;1754274;80;21209;-50
2020/12/20 05:00:58;;;;;;;8.10;7.30;;;;;;;2.52;67.83;95499.48;1783259;79;21094;-50
2020/12/20 05:03:27;;;;;;;13.93;12.43;;;;;;;2.51;67.43;95506.84;1752735;80;21200;-50
2020/12/20 05:05:56;;;;;;;12.05;10.50;;;;;;;2.43;67.41;95501.73;1783220;79;21054;-50
2020/12/20 05:08:25;;;;;;;12.88;11.15;;;;;;;2.35;67.40;95497.41;1783241;80;21334;-49
2020/12/20 05:10:54;;;;;;;18.50;11.12;;;;;;;2.31;67.56;95503.40;1783282;80;21495;-51
2020/12/20 05:13:39;;;;;;;13.13;10.05;;;;;;;2.30;67.72;95502.61;1783181;79;21086;-50
2020/12/20 05:16:13;;;;;;;9.88;8.25;;;;;;;2.29;67.76;95500.28;1783265;80;21166;-48
2020/12/20 05:18:51;;;;;;;20.70;15.83;;;;;;;2.27;67.72;95510.15;1780284;80;21161;-50
2020/12/20 05:21:28;;;;;;;11.18;10.05;;;;;;;2.24;67.73;95509.55;1783255;80;21481;-50
2020/12/20 05:23:58;;;;;;;10.05;7.35;;;;;;;2.23;67.59;95512.63;1783162;79;21137;-51
2020/12/20 05:26:30;;;;;;;9.60;7.60;;;;;;;2.12;67.61;95504.98;1783182;79;21122;-50
2020/12/20 05:29:13;;;;;;;23.27;15.58;;;;;;;2.04;67.89;95501.99;1783193;80;21117;-50
2020/12/20 05:31:43;;;;;;;36.65;18.65;;;;;;;2.02;68.16;95506.45;1783109;79;21082;-50
2020/12/20 05:34:22;;;;;;;37.13;18.57;;;;;;;2.09;68.13;95503.79;1873654;76;22308;-49
2020/12/20 05:36:51;;;;;;;34.95;18.32;;;;;;;2.10;68.02;95504.59;1841695;78;21470;-51
2020/12/20 05:39:35;;;;;;;25.82;14.60;;;;;;;2.10;67.88;95501.88;1805466;78;22396;-50
2020/12/20 05:42:08;;;;;;;12.28;9.18;;;;;;;2.12;67.96;95500.92;1815348;78;21217;-50
2020/12/20 05:44:38;;;;;;;20.15;11.95;;;;;;;2.14;67.69;95495.89;1779243;79;21070;-49
2020/12/20 05:47:08;;;;;;;23.52;18.17;;;;;;;2.11;67.64;95502.08;1808007;79;21081;-52
2020/12/20 05:49:39;;;;;;;19.95;15.00;;;;;;;2.09;67.43;95504.35;1807719;78;21068;-50
2020/12/20 05:52:10;;;;;;;10.60;9.25;;;;;;;2.03;67.57;95505.30;1808110;79;21360;-50
2020/12/20 05:54:40;;;;;;;13.95;12.43;;;;;;;2.00;67.59;95515.52;1808474;79;21069;-50
2020/12/20 05:57:19;;;;;;;7.72;6.92;;;;;;;1.97;67.70;95514.15;1808653;79;21491;-50
2020/12/20 05:59:50;;;;;;;7.60;6.90;;;;;;;1.97;67.55;95514.15;1808546;78;21079;-52
2020/12/20 06:02:19;;;;;;;7.08;6.47;;;;;;;1.93;67.57;95515.46;1808499;79;21078;-50
2020/12/20 06:04:48;;;;;;;8.55;7.67;;;;;;;1.87;67.62;95520.23;1808500;79;21185;-51
2020/12/20 06:07:17;;;;;;;20.32;11.33;;;;;;;1.75;67.84;95523.23;1808546;79;21578;-51
2020/12/20 06:09:54;;;;;;;15.95;11.70;;;;;;;1.71;67.97;95527.05;1808492;79;21137;-49
2020/12/20 06:12:25;;;;;;;17.75;15.85;;;;;;;1.71;68.06;95533.84;1808494;79;21191;-51
2020/12/20 06:14:55;;;;;;;14.33;11.05;;;;;;;1.69;68.07;95532.84;1808503;78;21180;-49
2020/12/20 06:17:24;;;;;;;15.43;12.82;;;;;;;1.67;68.07;95536.50;1808597;79;22243;-51
2020/12/20 06:19:58;;;;;;;11.88;8.75;;;;;;;1.67;68.11;95536.50;1808455;79;21156;-50
2020/12/20 06:22:35;;;;;;;17.17;13.93;;;;;;;1.67;68.05;95537.86;1808626;79;21568;-50
2020/12/20 06:25:05;;;;;;;70.40;49.80;;;;;;;1.63;68.06;95545.17;1808429;79;21173;-50
2020/12/20 06:27:35;;;;;;;40.45;25.70;;;;;;;1.60;68.39;95543.21;1808593;79;21466;-51
2020/12/20 06:30:06;;;;;;;50.75;34.88;;;;;;;1.63;68.39;95547.09;1808476;79;21635;-50
2020/12/20 06:32:43;;;;;;;25.50;19.55;;;;;;;1.64;68.50;95545.94;1809026;79;21216;-51
2020/12/20 06:35:16;;;;;;;16.80;12.63;;;;;;;1.69;68.31;95548.34;1814184;78;21065;-51
2020/12/20 06:37:46;;;;;;;25.05;15.72;;;;;;;1.72;68.13;95543.53;1814257;79;21153;-52
2020/12/20 06:40:18;;;;;;;16.30;13.03;;;;;;;1.67;68.26;95548.70;1814302;79;21215;-51
2020/12/20 06:42:46;;;;;;;25.50;17.37;;;;;;;1.70;68.17;95558.03;1787482;79;21392;-51
2020/12/20 06:45:20;;;;;;;19.87;14.05;;;;;;;1.72;68.15;95549.72;1813646;79;21161;-51
2020/12/20 06:47:50;;;;;;;18.98;15.45;;;;;;;1.76;68.10;95555.98;1813815;78;21486;-53
2020/12/20 06:50:45;;;;;;;34.40;15.95;;;;;;;1.80;68.05;95554.08;1813580;79;21188;-52
2020/12/20 06:53:18;;;;;;;19.70;17.32;;;;;;;1.87;67.91;95559.57;1813688;79;21561;-53
2020/12/20 06:55:46;;;;;;;;;;;;;;;1.89;67.72;95561.33;1816402;79;22236;-54
2020/12/20 06:58:17;;;;;;;24.80;16.70;;;;;;;1.92;67.49;95560.62;1813550;79;20213;-50
2020/12/20 07:00:55;;;;;;;24.00;21.17;;;;;;;1.92;67.56;95565.45;1813582;79;21176;-52
2020/12/20 07:03:31;;;;;;;27.20;18.92;;;;;;;1.95;67.47;95566.65;1813605;78;21073;-49
2020/12/20 07:06:13;;;;;;;17.05;13.62;;;;;;;1.96;67.36;95564.91;1813657;79;21069;-50
2020/12/20 07:08:55;;;;;;;18.65;15.68;;;;;;;1.96;67.35;95573.63;1812190;79;21180;-51
2020/12/20 07:11:26;;;;;;;28.38;24.77;;;;;;;1.95;67.34;95569.36;1813553;79;21199;-50
2020/12/20 07:13:55;;;;;;;14.98;13.45;;;;;;;1.96;67.35;95574.39;1813530;79;21196;-51
2020/12/20 07:16:38;;;;;;;15.95;14.23;;;;;;;2.03;67.25;95569.62;1813569;79;21608;-50
2020/12/20 07:19:07;;;;;;;26.37;8.28;;;;;;;2.06;67.00;95575.66;1813644;78;21577;-50
2020/12/20 07:21:46;;;;;;;9.38;8.48;;;;;;;2.09;67.00;95568.92;1813629;78;22071;-52
2020/12/20 07:24:17;;;;;;;13.62;7.15;;;;;;;2.08;66.91;95572.79;1813471;79;21602;-52
2020/12/20 07:26:51;;;;;;;14.10;7.28;;;;;;;2.02;67.01;95570.78;1813841;79;21148;-52
2020/12/20 07:29:20;;;;;;;17.07;9.48;;;;;;;1.97;67.08;95567.05;1813690;79;21077;-50
2020/12/20 07:31:54;;;;;;;12.60;9.65;;;;;;;1.91;67.27;95572.59;1813704;78;21482;-52
2020/12/20 07:34:24;;;;;;;12.03;8.88;;;;;;;1.89;67.44;95569.47;1809545;78;21189;-54
2020/12/20 07:36:53;;;;;;;14.87;10.15;;;;;;;1.92;67.48;95576.30;1807816;79;21086;-51
2020/12/20 07:39:23;;;;;;;13.68;9.73;;;;;;;1.91;67.56;95570.67;1807851;79;21077;-50
2020/12/20 07:41:51;;;;;;;27.58;11.60;;;;;;;1.89;67.64;95577.61;1807792;78;21074;-51
2020/12/20 07:44:21;;;;;;;22.10;14.73;;;;;;;1.90;67.77;95580.52;1807850;79;21053;-51
2020/12/20 07:46:49;;;;;;;24.92;12.45;;;;;;;1.93;67.62;95581.16;1807846;79;21356;-52
2020/12/20 07:49:18;;;;;;;15.60;13.08;;;;;;;1.96;67.56;95578.47;1807831;79;21550;-51
2020/12/20 07:51:46;;;;;;;17.35;11.90;;;;;;;1.99;67.54;95582.38;1807832;78;21117;-54
2020/12/20 07:54:15;;;;;;;12.80;9.80;;;;;;;2.07;67.55;95580.73;1807797;79;21164;-52
2020/12/20 07:56:45;;;;;;;11.12;9.43;;;;;;;2.15;66.91;95580.98;1807775;79;21162;-50
2020/12/20 07:59:16;;;;;;;17.62;10.00;;;;;;;2.18;66.66;95582.95;1807845;79;21198;-52
2020/12/20 08:01:45;;;;;;;13.62;10.43;;;;;;;2.18;66.50;95595.16;1807810;79;21145;-52
2020/12/20 08:04:22;;;;;;;16.40;11.15;;;;;;;2.14;66.68;95590.28;1807923;79;21573;-54
2020/12/20 08:06:52;;;;;;;12.90;10.32;;;;;;;2.16;66.73;95584.50;1807868;78;21081;-53
2020/12/20 08:09:25;;;;;;;14.87;10.20;;;;;;;2.18;66.63;95587.02;1807954;79;21054;-50
2020/12/20 08:11:54;;;;;;;17.45;10.75;;;;;;;2.21;66.59;95578.72;1807543;79;22333;-53
2020/12/20 08:14:23;;;;;;;15.83;11.50;;;;;;;2.22;66.49;95580.28;1799805;78;21554;-50
2020/12/20 08:16:52;;;;;;;16.30;12.58;;;;;;;2.20;66.60;95580.67;1807908;78;21509;-51
2020/12/20 08:19:31;;;;;;;16.02;10.70;;;;;;;2.24;66.72;95573.34;1802784;78;21091;-52
2020/12/20 08:22:13;;;;;;;20.17;12.65;;;;;;;2.37;66.63;95571.11;1806060;79;21585;-52
2020/12/20 08:24:43;;;;;;;20.43;11.37;;;;;;;2.52;66.27;95585.02;1808084;78;21372;-52
2020/12/20 08:27:19;;;;;;;11.45;8.30;;;;;;;2.61;66.00;95582.75;1805985;79;21474;-51
2020/12/20 08:29:57;;;;;;;11.57;10.08;;;;;;;2.73;65.84;95582.48;1788188;79;21087;-51
2020/12/20 08:32:36;;;;;;;15.80;14.13;;;;;;;2.81;65.51;95586.79;1799976;78;21481;-51
2020/12/20 08:35:22;;;;;;;11.25;9.20;;;;;;;2.90;65.31;95585.91;1800618;78;21196;-51
2020/12/20 08:38:00;;;;;;;15.88;11.05;;;;;;;2.94;65.17;95578.55;1762116;81;21199;-52
2020/12/20 08:40:34;;;;;;;10.80;8.55;;;;;;;2.99;65.08;95578.19;1743382;82;21095;-52
2020/12/20 08:43:03;;;;;;;14.15;7.65;;;;;;;2.97;64.70;95579.14;1744730;81;21491;-53
2020/12/20 08:45:32;;;;;;;11.45;8.93;;;;;;;3.03;64.09;95571.63;1748587;82;21173;-54
2020/12/20 08:48:02;;;;;;;12.82;9.45;;;;;;;3.14;63.85;95579.84;1742715;82;21062;-52
2020/12/20 08:50:31;;;;;;;21.35;8.70;;;;;;;3.45;63.60;95571.09;1756897;80;21159;-51
2020/12/20 08:53:07;;;;;;;21.70;8.78;;;;;;;3.79;62.74;95559.55;1756656;81;21503;-52
2020/12/20 08:55:35;;;;;;;11.48;8.50;;;;;;;4.01;62.11;95562.53;1756852;81;21142;-52
2020/12/20 08:58:07;;;;;;;18.15;12.93;;;;;;;4.04;61.78;95562.55;1756877;80;21162;-54
2020/12/20 09:00:36;;;;;;;20.85;9.13;;;;;;;4.07;61.15;95557.69;1756906;81;21127;-53
2020/12/20 09:03:06;;;;;;;12.28;7.45;;;;;;;4.15;61.18;95557.92;1756278;81;22040;-54
2020/12/20 09:05:37;;;;;;;20.32;12.35;;;;;;;4.29;60.46;95558.52;1756175;80;21601;-50
2020/12/20 09:08:07;;;;;;;11.60;9.38;;;;;;;4.27;60.33;95556.77;1756447;81;21145;-51
2020/12/20 09:10:37;;;;;;;21.37;10.23;;;;;;;4.32;60.41;95553.09;1756519;81;21142;-52
2020/12/20 09:13:07;;;;;;;11.20;8.40;;;;;;;4.59;59.94;95552.89;1756859;81;21141;-51
2020/12/20 09:15:36;;;;;;;17.70;10.13;;;;;;;4.88;59.12;95546.28;1756799;81;22079;-52
2020/12/20 09:18:17;;;;;;;21.95;10.75;;;;;;;5.02;58.72;95542.75;1756868;81;21609;-51
2020/12/20 09:20:47;;;;;;;25.40;10.23;;;;;;;5.02;58.17;95540.81;1757123;81;21192;-53
2020/12/20 09:23:22;;;;;;;10.05;8.43;;;;;;;4.92;58.29;95537.51;1756985;81;21768;-53
2020/12/20 09:25:52;;;;;;;10.38;8.00;;;;;;;4.93;58.43;95534.21;1750501;80;21530;-53
2020/12/20 09:28:24;;;;;;;14.20;9.43;;;;;;;5.05;57.92;95535.94;1756139;81;21389;-53
2020/12/20 09:30:56;;;;;;;13.83;9.13;;;;;;;5.22;57.99;95530.23;1756154;80;21173;-50
2020/12/20 09:33:33;;;;;;;14.63;10.13;;;;;;;5.53;57.19;95526.05;1756486;81;21578;-54
2020/12/20 09:36:04;;;;;;;29.63;12.03;;;;;;;5.86;56.36;95531.80;1756600;80;21146;-53
2020/12/20 09:38:53;;;;;;;13.75;10.65;;;;;;;6.04;55.86;95527.02;1740398;81;21205;-52
2020/12/20 09:41:24;;;;;;;20.23;10.82;;;;;;;6.04;55.75;95522.13;1735506;81;21202;-51
2020/12/20 09:43:53;;;;;;;16.30;10.58;;;;;;;5.88;55.93;95536.84;1756224;81;21141;-53
2020/12/20 09:46:25;;;;;;;19.35;9.98;;;;;;;5.73;56.08;95529.86;1748129;81;21069;-51
2020/12/20 09:48:56;;;;;;;16.80;11.12;;;;;;;5.69;56.48;95525.00;1753824;81;21580;-52
2020/12/20 09:51:24;;;;;;;18.37;11.08;;;;;;;5.93;56.17;95522.19;1749433;81;21239;-53
2020/12/20 09:53:54;;;;;;;22.40;10.78;;;;;;;6.35;55.64;95522.53;1741749;81;21199;-52
2020/12/20 09:56:22;;;;;;;14.07;11.22;;;;;;;6.53;55.10;95514.98;1747679;81;21194;-54
2020/12/20 09:58:50;;;;;;;17.17;10.23;;;;;;;6.71;54.64;95509.54;1743713;82;21131;-53
2020/12/20 10:01:22;;;;;;;17.75;10.53;;;;;;;7.03;54.15;95517.48;1752771;81;21095;-54
2020/12/20 10:03:50;;;;;;;26.00;13.38;;;;;;;7.39;53.08;95516.12;1754787;81;21151;-52
2020/12/20 10:06:19;;;;;;;19.05;10.38;;;;;;;7.89;52.60;95521.78;1744822;81;21208;-51
2020/12/20 10:08:48;;;;;;;19.60;10.82;;;;;;;8.21;51.14;95511.97;1718743;81;21128;-52
2020/12/20 10:11:18;;;;;;;17.27;10.93;;;;;;;8.40;50.62;95512.67;1712301;83;21136;-50
2020/12/20 10:13:48;;;;;;;15.88;11.53;;;;;;;8.58;50.10;95508.30;1712910;82;21072;-52
2020/12/20 10:16:18;;;;;;;15.90;10.60;;;;;;;8.48;49.75;95504.53;1713088;83;21148;-51
2020/12/20 10:18:47;;;;;;;14.63;9.93;;;;;;;8.31;50.09;95504.78;1717391;80;22108;-53
2020/12/20 10:21:15;;;;;;;16.67;8.55;;;;;;;8.29;49.75;95503.81;1742926;82;21211;-52
2020/12/20 10:23:45;;;;;;;13.55;8.78;;;;;;;8.30;49.69;95506.77;1743126;81;21159;-52
2020/12/20 10:26:14;;;;;;;13.65;9.15;;;;;;;8.33;49.61;95501.03;1743041;82;21659;-52
2020/12/20 10:28:43;;;;;;;19.50;10.60;;;;;;;8.45;49.39;95499.86;1742859;81;21132;-54
2020/12/20 10:31:14;;;;;;;18.77;9.50;;;;;;;8.57;49.17;95496.55;1743275;82;21204;-51
2020/12/20 10:33:43;;;;;;;12.88;9.10;;;;;;;8.67;48.71;95492.08;1705346;82;21175;-51
2020/12/20 10:36:13;;;;;;;13.05;9.05;;;;;;;8.72;48.69;95495.72;1737119;81;21172;-54
2020/12/20 10:38:41;;;;;;;23.77;10.68;;;;;;;8.83;48.46;95488.86;1737615;82;21231;-54
2020/12/20 10:41:10;;;;;;;19.27;7.75;;;;;;;8.93;48.28;95487.33;1737535;82;21069;-53
2020/12/20 10:43:38;;;;;;;8.88;5.95;;;;;;;9.14;47.47;95482.05;1737527;82;21385;-56
2020/12/20 10:46:07;;;;;;;8.95;5.87;;;;;;;9.31;46.72;95481.73;1737931;82;21624;-54
2020/12/20 10:48:36;;;;;;;8.83;5.53;;;;;;;9.57;46.19;95482.20;1737613;82;21196;-52
2020/12/20 10:51:04;;;;;;;9.15;6.37;;;;;;;9.86;45.47;95481.02;1737705;81;21268;-55
2020/12/20 10:53:33;;;;;;;10.30;6.15;;;;;;;10.27;44.83;95471.70;1737621;82;21089;-56
2020/12/20 10:56:02;;;;;;;12.70;6.28;;;;;;;10.84;43.91;95474.83;1737495;82;21469;-55
2020/12/20 10:58:30;;;;;;;23.25;7.90;;;;;;;11.20;43.01;95476.86;1737617;82;21984;-55
2020/12/20 11:00:59;;;;;;;11.60;8.73;;;;;;;11.25;42.63;95474.98;1737168;81;21208;-54
2020/12/20 11:03:28;;;;;;;38.55;12.33;;;;;;;11.04;42.91;95476.13;1737774;82;21172;-53
2020/12/20 11:05:57;;;;;;;12.70;10.23;;;;;;;11.02;43.07;95464.15;1738266;81;21204;-53
2020/12/20 11:08:26;;;;;;;12.93;9.40;;;;;;;11.04;42.46;95467.86;1738308;82;21450;-52
2020/12/20 11:10:56;;;;;;;14.23;10.30;;;;;;;11.05;42.58;95457.80;1721781;81;21114;-53
2020/12/20 11:13:25;;;;;;;31.48;12.53;;;;;;;11.32;42.76;95459.63;1738322;81;21219;-54
2020/12/20 11:15:54;;;;;;;15.78;10.13;;;;;;;11.56;42.36;95460.95;1738304;82;21196;-54
2020/12/20 11:18:22;;;;;;;14.18;10.30;;;;;;;11.50;42.29;95454.41;1738287;81;21505;-54
2020/12/20 11:20:51;;;;;;;18.45;11.28;;;;;;;11.50;41.48;95451.66;1738353;82;21144;-52
2020/12/20 11:23:19;;;;;;;16.12;11.40;;;;;;;11.40;41.60;95456.08;1737976;82;21085;-51
2020/12/20 11:25:51;;;;;;;15.60;10.82;;;;;;;11.30;41.88;95459.88;1737724;82;21088;-53
2020/12/20 11:28:20;;;;;;;20.05;13.72;;;;;;;11.52;42.70;95446.48;1738431;82;21101;-52
2020/12/20 11:30:48;;;;;;;31.52;11.73;;;;;;;12.18;41.38;95456.80;1738225;81;21168;-52
2020/12/20 11:33:17;;;;;;;10.80;8.10;;;;;;;12.81;39.78;95450.06;1738020;82;21371;-51
2020/12/20 11:35:47;;;;;;;6.22;5.15;;;;;;;13.06;39.57;95444.53;1737179;81;21215;-54
2020/12/20 11:38:15;;;;;;;12.60;5.83;;;;;;;13.42;38.78;95441.47;1736698;81;21141;-51
2020/12/20 11:40:44;;;;;;;15.23;8.25;;;;;;;14.03;38.16;95431.16;1736522;82;21214;-52
2020/12/20 11:43:13;;;;;;;9.83;7.30;;;;;;;14.53;36.89;95430.98;1733020;82;21070;-53
2020/12/20 11:45:42;;;;;;;14.78;8.65;;;;;;;15.01;36.22;95427.41;1745641;82;23515;-56